createdAt,value
2018-11-07T00:01:47.176Z,98106.20
2018-11-07T00:04:15.477Z,98104.63
2018-11-07T00:06:43.753Z,98103.82
2018-11-07T00:09:12.039Z,98108.53
2018-11-07T00:11:40.302Z,98116.41
2018-11-07T00:14:09.151Z,98122.11
2018-11-07T00:16:37.465Z,98121.75
2018-11-07T00:19:05.849Z,98124.84
2018-11-07T00:21:34.172Z,98132.72
2018-11-07T00:24:02.508Z,98131.91
2018-11-07T00:26:30.894Z,98126.03
2018-11-07T00:28:59.212Z,98127.64
2018-11-07T00:31:27.541Z,98129.25
2018-11-07T00:33:55.901Z,98131.63
2018-11-07T00:36:24.247Z,98126.81
2018-11-07T00:38:52.607Z,98132.32
2018-11-07T00:41:20.933Z,98138.78
2018-11-07T00:43:49.268Z,98141.84
2018-11-07T00:46:17.585Z,98134.71
2018-11-07T00:48:45.901Z,98129.06
2018-11-07T00:51:14.253Z,98133.13
2018-11-07T00:53:42.576Z,98129.65
2018-11-07T00:56:10.960Z,98136.42
2018-11-07T00:58:39.310Z,98132.58
2018-11-07T01:01:07.669Z,98138.33
2018-11-07T01:03:36.002Z,98146.08
2018-11-07T01:06:04.437Z,98139.71
2018-11-07T01:08:32.753Z,98132.59
2018-11-07T01:11:01.099Z,98120.41
2018-11-07T01:13:29.464Z,98125.83
2018-11-07T01:15:57.804Z,98128.97
2018-11-07T01:18:26.117Z,98126.08
2018-11-07T01:20:54.445Z,98126.64
2018-11-07T01:23:22.761Z,98122.59
2018-11-07T01:25:51.115Z,98112.13
2018-11-07T01:28:19.521Z,98111.46
2018-11-07T01:30:47.854Z,98107.59
2018-11-07T01:33:16.174Z,98108.57
2018-11-07T01:35:44.535Z,98117.58
2018-11-07T01:38:12.862Z,98110.24
2018-11-07T01:40:41.242Z,98110.85
2018-11-07T01:43:09.573Z,98114.83
2018-11-07T01:45:37.911Z,98117.22
2018-11-07T01:48:06.276Z,98131.67
2018-11-07T01:50:34.688Z,98128.67
2018-11-07T01:53:03.017Z,98132.27
2018-11-07T01:55:31.412Z,98134.33
2018-11-07T02:04:54.278Z,98132.03
2018-11-07T02:07:22.567Z,98121.69
2018-11-07T02:09:50.831Z,98116.77
2018-11-07T02:12:19.161Z,98119.66
2018-11-07T02:14:47.476Z,98122.30
2018-11-07T02:17:15.784Z,98119.05
2018-11-07T02:19:44.072Z,98123.48
2018-11-07T02:22:12.337Z,98128.06
2018-11-07T02:24:40.690Z,98134.42
2018-11-07T02:27:08.951Z,98138.50
2018-11-07T02:29:37.283Z,98147.55
2018-11-07T02:32:05.611Z,98138.77
2018-11-07T02:34:34.001Z,98144.43
2018-11-07T02:37:02.374Z,98141.55
2018-11-07T02:39:30.661Z,98137.94
2018-11-07T02:41:59.053Z,98132.16
2018-11-07T02:44:27.286Z,98135.16
2018-11-07T02:46:55.680Z,98145.14
2018-11-07T02:49:23.989Z,98140.82
2018-11-07T02:51:52.306Z,98138.55
2018-11-07T02:54:20.623Z,98137.58
2018-11-07T02:56:48.951Z,98139.38
2018-11-07T02:59:17.286Z,98132.64
2018-11-07T03:01:45.588Z,98130.25
2018-11-07T03:04:15.750Z,98134.19
2018-11-07T03:06:45.307Z,98131.30
2018-11-07T03:09:14.926Z,98127.70
2018-11-07T03:11:43.232Z,98121.20
2018-11-07T03:14:11.576Z,98120.63
2018-11-07T03:16:39.854Z,98130.72
2018-11-07T03:19:08.228Z,98132.39
2018-11-07T03:21:36.660Z,98133.97
2018-11-07T03:24:05.062Z,98129.77
2018-11-07T03:26:33.348Z,98132.28
2018-11-07T03:29:01.857Z,98128.30
2018-11-07T03:31:30.324Z,98123.16
2018-11-07T03:33:58.839Z,98134.79
2018-11-07T03:36:27.196Z,98131.84
2018-11-07T03:38:55.518Z,98135.12
2018-11-07T03:41:23.850Z,98144.64
2018-11-07T03:43:52.192Z,98129.73
2018-11-07T03:46:20.748Z,98135.39
2018-11-07T03:48:49.336Z,98141.39
2018-11-07T03:51:18.006Z,98147.04
2018-11-07T03:53:46.345Z,98150.05
2018-11-07T03:56:14.670Z,98143.70
2018-11-07T03:58:42.979Z,98147.28
2018-11-07T04:01:11.296Z,98151.98
2018-11-07T04:03:39.667Z,98156.41
2018-11-07T04:06:08.137Z,98136.83
2018-11-07T04:08:36.410Z,98142.47
2018-11-07T04:11:05.152Z,98145.92
2018-11-07T04:13:33.499Z,98144.40
2018-11-07T04:16:01.885Z,98139.83
2018-11-07T04:18:30.168Z,98149.89
2018-11-07T04:20:58.496Z,98154.25
2018-11-07T04:23:26.775Z,98154.97
2018-11-07T04:25:55.090Z,98156.61
2018-11-07T04:28:23.385Z,98154.48
2018-11-07T04:30:51.690Z,98154.25
2018-11-07T04:33:19.976Z,98158.13
2018-11-07T04:35:48.513Z,98134.45
2018-11-07T04:38:16.826Z,98146.83
2018-11-07T04:40:45.167Z,98145.27
2018-11-07T04:43:13.499Z,98152.09
2018-11-07T04:45:41.830Z,98154.48
2018-11-07T04:48:10.140Z,98149.92
2018-11-07T04:50:45.489Z,98155.21
2018-11-07T04:53:15.000Z,98158.78
2018-11-07T04:55:43.338Z,98161.70
2018-11-07T04:58:11.633Z,98160.38
2018-11-07T05:00:39.967Z,98156.77
2018-11-07T05:03:08.254Z,98164.13
2018-11-07T05:05:36.576Z,98162.41
2018-11-07T05:08:04.934Z,98170.11
2018-11-07T05:10:33.252Z,98168.91
2018-11-07T05:13:01.560Z,98168.34
2018-11-07T05:15:29.897Z,98166.63
2018-11-07T05:17:58.253Z,98170.11
2018-11-07T05:20:26.789Z,98165.66
2018-11-07T05:22:55.091Z,98167.38
2018-11-07T05:25:23.388Z,98173.59
2018-11-07T05:27:51.658Z,98177.31
2018-11-07T05:30:19.955Z,98185.36
2018-11-07T05:32:48.247Z,98188.60
2018-11-07T05:35:16.620Z,98185.36
2018-11-07T05:37:44.921Z,98195.34
2018-11-07T05:40:14.411Z,98195.05
2018-11-07T05:42:42.763Z,98202.37
2018-11-07T05:45:11.508Z,98206.82
2018-11-07T05:47:39.991Z,98205.81
2018-11-07T05:50:09.102Z,98211.39
2018-11-07T05:52:37.875Z,98221.34
2018-11-07T05:55:06.768Z,98221.34
2018-11-07T05:57:35.867Z,98221.16
2018-11-07T06:00:04.754Z,98226.50
2018-11-07T06:02:33.100Z,98226.86
2018-11-07T06:05:01.405Z,98235.73
2018-11-07T06:07:34.688Z,98233.39
2018-11-07T06:10:03.090Z,98223.92
2018-11-07T06:12:31.466Z,98230.69
2018-11-07T06:14:59.767Z,98236.89
2018-11-07T06:17:28.180Z,98238.22
2018-11-07T06:19:56.508Z,98230.41
2018-11-07T06:22:24.869Z,98228.30
2018-11-07T06:24:53.232Z,98231.92
2018-11-07T06:27:21.747Z,98239.12
2018-11-07T06:29:50.809Z,98237.81
2018-11-07T06:32:19.170Z,98247.13
2018-11-07T06:34:47.476Z,98251.95
2018-11-07T06:37:15.891Z,98247.80
2018-11-07T06:39:44.473Z,98255.16
2018-11-07T06:42:12.827Z,98257.30
2018-11-07T06:44:41.301Z,98268.84
2018-11-07T06:47:10.122Z,98273.41
2018-11-07T06:49:39.338Z,98270.80
2018-11-07T06:52:07.666Z,98270.27
2018-11-07T06:54:36.825Z,98281.47
2018-11-07T06:57:05.707Z,98283.12
2018-11-07T06:59:34.005Z,98275.26
2018-11-07T07:02:02.447Z,98276.05
2018-11-07T07:04:30.734Z,98275.88
2018-11-07T07:06:59.489Z,98276.61
2018-11-07T07:09:27.826Z,98272.98
2018-11-07T07:11:56.302Z,98270.05
2018-11-07T07:14:24.669Z,98275.79
2018-11-07T07:16:53.241Z,98265.72
2018-11-07T07:19:21.595Z,98265.48
2018-11-07T07:21:51.208Z,98269.52
2018-11-07T07:24:20.583Z,98273.78
2018-11-07T07:26:49.971Z,98285.55
2018-11-07T07:29:19.551Z,98284.17
2018-11-07T07:31:49.694Z,98291.39
2018-11-07T07:34:20.095Z,98283.10
2018-11-07T07:36:48.844Z,98295.41
2018-11-07T07:39:17.192Z,98292.63
2018-11-07T07:41:46.357Z,98287.47
2018-11-07T07:44:14.691Z,98291.80
2018-11-07T07:46:42.968Z,98290.71
2018-11-07T07:49:11.609Z,98297.69
2018-11-07T07:51:40.161Z,98302.50
2018-11-07T07:54:08.543Z,98298.69
2018-11-07T07:56:36.965Z,98299.20
2018-11-07T07:59:06.037Z,98299.80
2018-11-07T08:01:34.339Z,98301.39
2018-11-07T08:04:02.865Z,98301.75
2018-11-07T08:06:34.212Z,98308.60
2018-11-07T08:09:02.498Z,98306.94
2018-11-07T08:11:30.850Z,98310.78
2018-11-07T08:13:59.292Z,98312.97
2018-11-07T08:16:27.688Z,98314.52
2018-11-07T08:18:55.970Z,98314.02
2018-11-07T08:21:24.426Z,98305.12
2018-11-07T08:23:52.674Z,98303.06
2018-11-07T08:26:21.122Z,98306.67
2018-11-07T08:28:49.541Z,98310.02
2018-11-07T08:31:18.788Z,98308.20
2018-11-07T08:33:47.044Z,98305.31
2018-11-07T08:36:15.425Z,98311.42
2018-11-07T08:38:43.665Z,98307.65
2018-11-07T08:41:11.973Z,98301.31
2018-11-07T08:43:40.337Z,98309.10
2018-11-07T08:46:08.600Z,98311.09
2018-11-07T08:48:38.899Z,98313.62
2018-11-07T08:51:07.169Z,98298.55
2018-11-07T08:53:36.513Z,98302.83
2018-11-07T08:56:05.151Z,98301.78
2018-11-07T08:58:33.426Z,98301.45
2018-11-07T09:01:01.769Z,98298.88
2018-11-07T09:03:30.068Z,98298.56
2018-11-07T09:05:58.410Z,98305.61
2018-11-07T09:08:26.709Z,98303.59
2018-11-07T09:10:55.047Z,98297.26
2018-11-07T09:13:23.487Z,98305.89
2018-11-07T09:15:51.721Z,98296.27
2018-11-07T09:18:20.057Z,98296.96
2018-11-07T09:20:48.288Z,98300.57
2018-11-07T09:23:16.612Z,98310.36
2018-11-07T09:25:45.190Z,98314.56
2018-11-07T09:28:13.691Z,98318.31
2018-11-07T09:30:42.001Z,98307.27
2018-11-07T09:33:10.314Z,98309.00
2018-11-07T09:35:38.610Z,98314.38
2018-11-07T09:38:07.001Z,98309.28
2018-11-07T09:40:35.224Z,98309.38
2018-11-07T09:43:03.642Z,98313.03
2018-11-07T09:45:31.873Z,98305.47
2018-11-07T09:48:00.242Z,98310.08
2018-11-07T09:50:28.590Z,98315.34
2018-11-07T09:52:56.949Z,98317.88
2018-11-07T09:55:25.177Z,98315.97
2018-11-07T09:57:53.516Z,98320.50
2018-11-07T10:00:22.565Z,98314.91
2018-11-07T10:02:50.854Z,98309.07
2018-11-07T10:05:20.601Z,98308.53
2018-11-07T10:07:49.165Z,98306.73
2018-11-07T10:10:18.991Z,98311.75
2018-11-07T10:12:47.386Z,98313.92
2018-11-07T10:15:15.747Z,98302.41
2018-11-07T10:17:44.177Z,98304.80
2018-11-07T10:20:15.353Z,98300.91
2018-11-07T10:22:44.478Z,98304.66
2018-11-07T10:25:13.254Z,98307.59
2018-11-07T10:27:42.003Z,98306.53
2018-11-07T10:30:12.465Z,98304.30
2018-11-07T10:32:41.077Z,98299.92
2018-11-07T10:35:09.901Z,98298.81
2018-11-07T10:37:38.287Z,98293.13
2018-11-07T10:40:08.881Z,98294.80
2018-11-07T10:42:37.827Z,98295.61
2018-11-07T10:45:06.834Z,98291.77
2018-11-07T10:47:35.161Z,98284.29
2018-11-07T10:50:06.365Z,98287.19
2018-11-07T10:52:34.728Z,98285.84
2018-11-07T10:55:02.941Z,98289.22
2018-11-07T10:57:31.180Z,98286.64
2018-11-07T10:59:59.521Z,98284.92
2018-11-07T11:02:33.041Z,98283.84
2018-11-07T11:05:01.558Z,98281.74
2018-11-07T11:07:30.019Z,98282.75
2018-11-07T11:09:58.334Z,98280.23
2018-11-07T11:12:26.757Z,98280.41
2018-11-07T11:14:55.097Z,98288.07
2018-11-07T11:17:23.481Z,98279.70
2018-11-07T11:19:51.703Z,98280.91
2018-11-07T11:22:20.036Z,98281.08
2018-11-07T11:24:48.296Z,98280.91
2018-11-07T11:27:16.562Z,98279.57
2018-11-07T11:29:44.946Z,98271.84
2018-11-07T11:32:14.429Z,98273.89
2018-11-07T11:34:43.066Z,98268.89
2018-11-07T11:37:11.340Z,98273.08
2018-11-07T11:39:39.827Z,98270.20
2018-11-07T11:42:08.111Z,98268.37
2018-11-07T11:44:36.389Z,98270.56
2018-11-07T11:47:04.631Z,98270.71
2018-11-07T11:49:34.103Z,98271.55
2018-11-07T11:52:02.375Z,98273.39
2018-11-07T11:54:31.669Z,98264.84
2018-11-07T11:57:00.065Z,98265.36
2018-11-07T11:59:28.545Z,98265.85
2018-11-07T12:01:56.718Z,98265.36
2018-11-07T12:04:25.837Z,98263.84
2018-11-07T12:06:54.313Z,98269.03
2018-11-07T12:09:23.661Z,98261.34
2018-11-07T12:11:51.961Z,98270.73
2018-11-07T12:14:20.212Z,98270.39
2018-11-07T12:16:48.472Z,98266.70
2018-11-07T12:19:16.729Z,98262.65
2018-11-07T12:21:45.023Z,98259.14
2018-11-07T12:24:13.283Z,98260.34
2018-11-07T12:26:41.578Z,98257.97
2018-11-07T12:29:09.954Z,98252.10
2018-11-07T12:31:38.202Z,98257.30
2018-11-07T12:34:06.469Z,98262.14
2018-11-07T12:36:34.823Z,98262.32
2018-11-07T12:39:09.962Z,98260.64
2018-11-07T12:41:39.953Z,98259.66
2018-11-07T12:44:08.681Z,98263.79
2018-11-07T12:46:38.120Z,98252.91
2018-11-07T12:49:06.458Z,98251.39
2018-11-07T12:51:34.866Z,98252.91
2018-11-07T12:54:03.827Z,98249.56
2018-11-07T12:56:33.016Z,98255.23
2018-11-07T12:59:01.455Z,98257.27
2018-11-07T13:01:31.794Z,98267.98
2018-11-07T13:04:00.178Z,98262.26
2018-11-07T13:06:29.344Z,98261.56
2018-11-07T13:09:00.226Z,98260.16
2018-11-07T13:11:30.026Z,98261.22
2018-11-07T13:13:59.501Z,98259.92
2018-11-07T13:16:29.091Z,98265.60
2018-11-07T13:18:59.692Z,98263.77
2018-11-07T13:21:28.082Z,98266.27
2018-11-07T13:23:56.440Z,98275.92
2018-11-07T13:26:25.438Z,98266.94
2018-11-07T13:28:53.921Z,98274.34
2018-11-07T13:31:23.395Z,98271.84
2018-11-07T13:33:51.662Z,98266.45
2018-11-07T13:36:20.213Z,98263.91
2018-11-07T13:38:48.852Z,98261.89
2018-11-07T13:41:17.665Z,98261.56
2018-11-07T13:46:40.903Z,98255.73
2018-11-07T13:49:09.361Z,98263.14
2018-11-07T13:51:37.985Z,98262.98
2018-11-07T13:54:06.357Z,98261.63
2018-11-07T13:56:34.970Z,98259.14
2018-11-07T13:59:03.289Z,98255.96
2018-11-07T14:01:31.686Z,98262.67
2018-11-07T14:04:02.189Z,98262.52
2018-11-07T14:06:30.847Z,98274.08
2018-11-07T14:09:01.027Z,98269.39
2018-11-07T14:11:30.466Z,98278.27
2018-11-07T14:13:58.863Z,98277.08
2018-11-07T14:16:27.947Z,98276.09
2018-11-07T14:18:56.387Z,98277.92
2018-11-07T14:21:24.732Z,98282.60
2018-11-07T14:23:53.045Z,98287.30
2018-11-07T14:29:04.920Z,98291.12
2018-11-07T14:31:33.261Z,98288.91
2018-11-07T14:34:01.571Z,98293.71
2018-11-07T14:36:29.999Z,98295.51
2018-11-07T14:38:58.340Z,98300.14
2018-11-07T14:41:26.642Z,98301.58
2018-11-07T14:43:56.039Z,98298.22
2018-11-07T14:46:24.375Z,98305.77
2018-11-07T14:48:53.950Z,98310.50
2018-11-07T14:51:22.471Z,98312.48
2018-11-07T14:53:50.811Z,98318.09
2018-11-07T14:56:19.210Z,98324.36
2018-11-07T14:58:47.537Z,98317.91
2018-11-07T15:10:07.523Z,98330.72
2018-11-07T15:12:35.966Z,98325.26
2018-11-07T15:15:04.791Z,98332.73
2018-11-07T15:17:33.420Z,98337.83
2018-11-07T15:20:02.055Z,98341.03
2018-11-07T15:22:30.741Z,98341.43
2018-11-07T15:24:59.301Z,98340.20
2018-11-07T15:27:28.013Z,98344.63
2018-11-07T15:29:56.587Z,98348.70
2018-11-07T15:32:25.061Z,98354.28
2018-11-07T15:34:53.563Z,98357.52
2018-11-07T15:37:21.886Z,98361.39
2018-11-07T15:39:50.323Z,98359.37
2018-11-07T15:42:18.921Z,98360.21
2018-11-07T15:44:47.239Z,98367.45
2018-11-07T15:47:15.538Z,98363.45
2018-11-07T15:49:47.983Z,98353.78
2018-11-07T15:52:16.301Z,98364.98
2018-11-07T15:54:44.628Z,98368.87
2018-11-07T15:57:12.904Z,98371.09
2018-11-07T15:59:41.237Z,98372.78
2018-11-07T16:02:09.561Z,98369.08
2018-11-07T16:04:37.906Z,98377.89
2018-11-07T16:07:06.194Z,98379.30
2018-11-07T16:09:34.490Z,98385.47
2018-11-07T16:12:02.835Z,98382.92
2018-11-07T16:14:31.328Z,98381.98
2018-11-07T16:16:59.785Z,98386.05
2018-11-07T16:19:28.115Z,98390.73
2018-11-07T16:21:56.520Z,98395.56
2018-11-07T16:24:25.192Z,98392.64
2018-11-07T16:26:53.688Z,98401.32
2018-11-07T16:29:21.993Z,98398.02
2018-11-07T16:31:50.379Z,98401.65
2018-11-07T16:34:18.638Z,98394.94
2018-11-07T16:36:46.985Z,98396.90
2018-11-07T16:39:15.323Z,98402.24
2018-11-07T16:41:43.872Z,98412.14
2018-11-07T16:44:12.052Z,98411.63
2018-11-07T16:46:40.360Z,98417.36
2018-11-07T16:49:08.695Z,98426.87
2018-11-07T16:51:37.122Z,98425.63
2018-11-07T16:54:07.371Z,98427.31
2018-11-07T16:56:35.774Z,98430.23
2018-11-07T16:59:04.158Z,98432.72
2018-11-07T17:01:32.937Z,98435.23
2018-11-07T17:04:01.466Z,98444.01
2018-11-07T17:06:30.112Z,98446.41
2018-11-07T17:08:58.420Z,98449.20
2018-11-07T17:11:26.723Z,98445.42
2018-11-07T17:13:55.057Z,98452.55
2018-11-07T17:16:23.432Z,98447.37
2018-11-07T17:18:51.895Z,98462.20
2018-11-07T17:21:20.210Z,98461.74
2018-11-07T17:23:48.606Z,98464.40
2018-11-07T17:26:16.897Z,98463.78
2018-11-07T17:28:45.307Z,98466.92
2018-11-07T17:31:13.882Z,98472.23
2018-11-07T17:33:42.218Z,98472.32
2018-11-07T17:36:10.504Z,98472.34
2018-11-07T17:38:38.871Z,98472.32
2018-11-07T17:41:07.186Z,98463.77
2018-11-07T17:43:35.470Z,98473.06
2018-11-07T17:46:03.950Z,98474.91
2018-11-07T17:48:32.384Z,98476.70
2018-11-07T17:51:00.611Z,98480.33
2018-11-07T17:53:28.963Z,98488.44
2018-11-07T17:55:57.263Z,98489.26
2018-11-07T17:58:25.620Z,98493.59
2018-11-07T18:00:53.950Z,98490.59
2018-11-07T18:03:22.382Z,98498.91
2018-11-07T18:05:50.705Z,98498.08
2018-11-07T18:08:19.029Z,98505.05
2018-11-07T18:10:47.515Z,98507.13
2018-11-07T18:13:15.986Z,98507.25
2018-11-07T18:15:44.338Z,98504.60
2018-11-07T18:18:12.665Z,98501.20
2018-11-07T18:20:41.491Z,98503.40
2018-11-07T18:23:09.814Z,98504.61
2018-11-07T18:25:38.113Z,98507.08
2018-11-07T18:28:06.545Z,98505.88
2018-11-07T18:30:35.339Z,98510.22
2018-11-07T18:33:03.615Z,98514.34
2018-11-07T18:35:32.257Z,98519.06
2018-11-07T18:38:02.051Z,98522.96
2018-11-07T18:40:30.601Z,98525.91
2018-11-07T18:42:59.264Z,98519.66
2018-11-07T18:45:30.409Z,98522.43
2018-11-07T18:47:59.760Z,98520.03
2018-11-07T18:50:28.201Z,98528.89
2018-11-07T18:52:56.659Z,98528.89
2018-11-07T18:55:24.944Z,98525.16
2018-11-07T18:57:53.391Z,98533.47
2018-11-07T19:00:21.728Z,98534.56
2018-11-07T19:02:51.251Z,98538.50
2018-11-07T19:05:19.905Z,98535.41
2018-11-07T19:07:48.573Z,98531.64
2018-11-07T19:10:18.665Z,98532.72
2018-11-07T19:12:47.722Z,98534.38
2018-11-07T19:15:16.645Z,98540.33
2018-11-07T19:17:46.479Z,98542.26
2018-11-07T19:20:16.206Z,98548.69
2018-11-07T19:22:45.070Z,98547.45
2018-11-07T19:25:17.446Z,98548.05
2018-11-07T19:27:47.563Z,98558.09
2018-11-07T19:30:18.402Z,98549.78
2018-11-07T19:32:49.160Z,98548.52
2018-11-07T19:35:51.006Z,98554.40
2018-11-07T19:38:19.759Z,98551.55
2018-11-07T19:40:48.103Z,98557.06
2018-11-07T19:43:16.444Z,98553.59
2018-11-07T19:45:45.454Z,98556.59
2018-11-07T19:48:13.779Z,98563.20
2018-11-07T19:50:42.058Z,98566.87
2018-11-07T19:53:11.371Z,98578.52
2018-11-07T19:55:39.657Z,98583.45
2018-11-07T19:58:09.224Z,98589.11
2018-11-07T20:03:52.813Z,98588.69
2018-11-07T20:06:21.542Z,98594.08
2018-11-07T20:08:49.964Z,98598.25
2018-11-07T20:11:18.926Z,98600.66
2018-11-07T20:13:47.290Z,98602.62
2018-11-07T20:16:15.702Z,98600.41
2018-11-07T20:18:44.024Z,98606.55
2018-11-07T20:21:14.025Z,98604.62
2018-11-07T20:23:43.017Z,98611.25
2018-11-07T20:26:11.431Z,98610.98
2018-11-07T20:28:39.772Z,98611.75
2018-11-07T20:31:08.708Z,98616.36
2018-11-07T20:33:37.996Z,98604.73
2018-11-07T20:36:07.124Z,98607.00
2018-11-07T20:38:36.251Z,98610.27
2018-11-07T20:41:04.695Z,98613.98
2018-11-07T20:43:34.085Z,98610.89
2018-11-07T20:46:02.516Z,98613.46
2018-11-07T20:48:32.276Z,98622.04
2018-11-07T20:51:00.656Z,98620.06
2018-11-07T20:53:29.221Z,98621.61
2018-11-07T20:55:57.558Z,98630.16
2018-11-07T20:58:26.028Z,98623.88
2018-11-07T21:00:54.679Z,98626.18
2018-11-07T21:03:23.353Z,98621.70
2018-11-07T21:05:51.699Z,98628.37
2018-11-07T21:08:20.030Z,98627.16
2018-11-07T21:10:49.072Z,98632.52
2018-11-07T21:13:17.406Z,98627.64
2018-11-07T21:15:46.070Z,98636.91
2018-11-07T21:18:14.404Z,98640.27
2018-11-07T21:20:42.763Z,98639.93
2018-11-07T21:23:11.904Z,98642.55
2018-11-07T21:25:41.164Z,98644.75
2018-11-07T21:28:09.475Z,98648.29
2018-11-07T21:30:37.888Z,98657.36
2018-11-07T21:33:07.198Z,98652.20
2018-11-07T21:35:35.523Z,98647.02
2018-11-07T21:38:03.807Z,98648.83
2018-11-07T21:40:32.118Z,98660.14
2018-11-07T21:43:00.551Z,98665.66
2018-11-07T21:45:28.827Z,98663.66
2018-11-07T21:47:57.121Z,98673.22
2018-11-07T21:50:25.480Z,98679.47
2018-11-07T21:52:53.787Z,98681.59
2018-11-07T21:55:22.123Z,98688.95
2018-11-07T21:57:50.499Z,98683.58
2018-11-07T22:00:19.818Z,98691.59
2018-11-07T22:02:48.235Z,98694.72
2018-11-07T22:05:17.411Z,98697.70
2018-11-07T22:07:45.854Z,98698.66
2018-11-07T22:10:15.437Z,98695.38
2018-11-07T22:12:43.805Z,98693.28
2018-11-07T22:15:12.239Z,98699.05
2018-11-07T22:17:40.714Z,98703.66
2018-11-07T22:20:12.986Z,98706.96
2018-11-07T22:22:41.273Z,98706.99
2018-11-07T22:25:09.652Z,98713.42
2018-11-07T22:27:37.997Z,98711.62
2018-11-07T22:30:08.018Z,98713.46
2018-11-07T22:32:36.566Z,98723.95
2018-11-07T22:35:05.247Z,98723.48
2018-11-07T22:37:33.610Z,98718.25
2018-11-07T22:40:01.934Z,98715.63
2018-11-07T22:42:30.261Z,98714.78
2018-11-07T22:44:58.668Z,98716.98
2018-11-07T22:47:26.949Z,98717.94
2018-11-07T22:49:55.271Z,98717.83
2018-11-07T22:52:23.572Z,98726.20
2018-11-07T22:54:51.875Z,98723.31
2018-11-07T22:57:20.195Z,98727.91
2018-11-07T22:59:48.549Z,98729.85
2018-11-07T23:02:18.203Z,98735.82
2018-11-07T23:04:46.700Z,98737.65
2018-11-07T23:07:15.476Z,98732.34
2018-11-07T23:09:43.959Z,98734.45
2018-11-07T23:12:12.304Z,98736.39
2018-11-07T23:14:40.688Z,98732.06
2018-11-07T23:17:08.989Z,98731.46
2018-11-07T23:19:37.339Z,98734.70
2018-11-07T23:22:05.981Z,98734.13
2018-11-07T23:24:34.347Z,98737.13
2018-11-07T23:27:02.667Z,98735.62
2018-11-07T23:29:30.990Z,98731.46
2018-11-07T23:31:59.319Z,98738.93
2018-11-07T23:34:27.584Z,98744.12
2018-11-07T23:36:55.884Z,98756.54
2018-11-07T23:39:24.164Z,98757.55
2018-11-07T23:41:52.514Z,98767.20
2018-11-07T23:44:20.891Z,98764.31
2018-11-07T23:46:49.235Z,98765.50
2018-11-07T23:49:17.538Z,98771.78
2018-11-07T23:51:49.947Z,98768.66
2018-11-07T23:54:19.902Z,98768.58
2018-11-07T23:56:48.510Z,98768.36
2018-11-07T23:59:16.831Z,98767.98
